sensor_id;sensor_type;location;lat;lon;timestamp;P1;durP1;ratioP1;P2;durP2;ratioP2
51724;SDS011;37801;53.224;6.552;2023-07-16T00:01:49;6.10;;;2.33;;
51724;SDS011;37801;53.224;6.552;2023-07-16T00:04:35;8.13;;;2.40;;
51724;SDS011;37801;53.224;6.552;2023-07-16T00:07:21;7.90;;;2.35;;
51724;SDS011;37801;53.224;6.552;2023-07-16T00:10:07;6.68;;;2.42;;
51724;SDS011;37801;53.224;6.552;2023-07-16T00:12:53;9.32;;;2.70;;
51724;SDS011;37801;53.224;6.552;2023-07-16T00:15:40;8.88;;;2.50;;
51724;SDS011;37801;53.224;6.552;2023-07-16T00:18:26;10.20;;;2.30;;
51724;SDS011;37801;53.224;6.552;2023-07-16T00:21:12;7.55;;;2.28;;
51724;SDS011;37801;53.224;6.552;2023-07-16T00:23:58;9.40;;;2.88;;
51724;SDS011;37801;53.224;6.552;2023-07-16T00:26:44;7.47;;;2.47;;
51724;SDS011;37801;53.224;6.552;2023-07-16T00:29:30;11.27;;;4.07;;
51724;SDS011;37801;53.224;6.552;2023-07-16T00:32:16;9.30;;;2.40;;
51724;SDS011;37801;53.224;6.552;2023-07-16T00:35:03;5.78;;;2.17;;
51724;SDS011;37801;53.224;6.552;2023-07-16T00:37:49;6.80;;;2.40;;
51724;SDS011;37801;53.224;6.552;2023-07-16T00:40:35;8.40;;;2.72;;
51724;SDS011;37801;53.224;6.552;2023-07-16T00:43:21;7.85;;;2.58;;
51724;SDS011;37801;53.224;6.552;2023-07-16T00:46:08;6.85;;;2.67;;
51724;SDS011;37801;53.224;6.552;2023-07-16T00:48:54;10.15;;;3.03;;
51724;SDS011;37801;53.224;6.552;2023-07-16T00:51:40;7.43;;;2.58;;
51724;SDS011;37801;53.224;6.552;2023-07-16T00:54:26;8.65;;;2.97;;
51724;SDS011;37801;53.224;6.552;2023-07-16T00:57:12;8.13;;;2.78;;
51724;SDS011;37801;53.224;6.552;2023-07-16T00:59:59;9.27;;;2.90;;
51724;SDS011;37801;53.224;6.552;2023-07-16T01:02:45;7.60;;;2.47;;
51724;SDS011;37801;53.224;6.552;2023-07-16T01:05:36;7.50;;;2.70;;
51724;SDS011;37801;53.224;6.552;2023-07-16T01:09:07;7.38;;;2.25;;
51724;SDS011;37801;53.224;6.552;2023-07-16T01:11:34;8.25;;;2.28;;
51724;SDS011;37801;53.224;6.552;2023-07-16T01:14:20;8.50;;;2.58;;
51724;SDS011;37801;53.224;6.552;2023-07-16T01:17:07;6.15;;;2.38;;
51724;SDS011;37801;53.224;6.552;2023-07-16T01:19:53;9.40;;;2.75;;
51724;SDS011;37801;53.224;6.552;2023-07-16T01:23:02;9.45;;;3.33;;
51724;SDS011;37801;53.224;6.552;2023-07-16T01:25:58;5.75;;;2.50;;
51724;SDS011;37801;53.224;6.552;2023-07-16T01:31:33;8.75;;;2.97;;
51724;SDS011;37801;53.224;6.552;2023-07-16T01:34:20;8.20;;;3.10;;
51724;SDS011;37801;53.224;6.552;2023-07-16T01:37:06;11.60;;;3.08;;
51724;SDS011;37801;53.224;6.552;2023-07-16T01:39:52;8.90;;;2.42;;
51724;SDS011;37801;53.224;6.552;2023-07-16T01:42:39;9.82;;;2.72;;
51724;SDS011;37801;53.224;6.552;2023-07-16T01:45:25;6.45;;;2.83;;
51724;SDS011;37801;53.224;6.552;2023-07-16T01:48:30;8.48;;;2.60;;
51724;SDS011;37801;53.224;6.552;2023-07-16T01:51:17;5.53;;;2.50;;
51724;SDS011;37801;53.224;6.552;2023-07-16T01:54:03;6.13;;;2.40;;
51724;SDS011;37801;53.224;6.552;2023-07-16T01:56:49;6.97;;;2.47;;
51724;SDS011;37801;53.224;6.552;2023-07-16T01:59:35;7.65;;;3.05;;
51724;SDS011;37801;53.224;6.552;2023-07-16T02:02:21;7.50;;;2.60;;
51724;SDS011;37801;53.224;6.552;2023-07-16T02:05:07;8.63;;;2.47;;
51724;SDS011;37801;53.224;6.552;2023-07-16T02:07:59;6.10;;;2.00;;
51724;SDS011;37801;53.224;6.552;2023-07-16T02:10:48;5.10;;;2.20;;
51724;SDS011;37801;53.224;6.552;2023-07-16T02:13:34;6.38;;;2.22;;
51724;SDS011;37801;53.224;6.552;2023-07-16T02:16:20;6.68;;;2.22;;
51724;SDS011;37801;53.224;6.552;2023-07-16T02:19:07;6.60;;;2.60;;
51724;SDS011;37801;53.224;6.552;2023-07-16T02:21:53;10.52;;;2.95;;
51724;SDS011;37801;53.224;6.552;2023-07-16T02:24:39;6.63;;;2.40;;
51724;SDS011;37801;53.224;6.552;2023-07-16T02:27:25;8.05;;;2.80;;
51724;SDS011;37801;53.224;6.552;2023-07-16T02:30:11;6.93;;;2.78;;
51724;SDS011;37801;53.224;6.552;2023-07-16T02:32:57;8.45;;;2.70;;
51724;SDS011;37801;53.224;6.552;2023-07-16T02:35:46;6.03;;;2.60;;
51724;SDS011;37801;53.224;6.552;2023-07-16T02:38:33;7.55;;;3.05;;
51724;SDS011;37801;53.224;6.552;2023-07-16T02:41:19;8.80;;;3.00;;
51724;SDS011;37801;53.224;6.552;2023-07-16T02:44:05;8.05;;;2.85;;
51724;SDS011;37801;53.224;6.552;2023-07-16T02:46:51;7.15;;;3.22;;
51724;SDS011;37801;53.224;6.552;2023-07-16T02:49:37;11.57;;;3.38;;
51724;SDS011;37801;53.224;6.552;2023-07-16T02:52:24;7.70;;;3.00;;
51724;SDS011;37801;53.224;6.552;2023-07-16T02:55:10;9.73;;;3.15;;
51724;SDS011;37801;53.224;6.552;2023-07-16T02:57:56;7.50;;;3.22;;
51724;SDS011;37801;53.224;6.552;2023-07-16T03:00:42;10.05;;;4.00;;
51724;SDS011;37801;53.224;6.552;2023-07-16T03:03:28;6.70;;;2.97;;
51724;SDS011;37801;53.224;6.552;2023-07-16T03:06:14;8.45;;;3.58;;
51724;SDS011;37801;53.224;6.552;2023-07-16T03:09:00;10.65;;;3.83;;
51724;SDS011;37801;53.224;6.552;2023-07-16T03:11:46;9.85;;;3.60;;
51724;SDS011;37801;53.224;6.552;2023-07-16T03:14:32;12.07;;;3.40;;
51724;SDS011;37801;53.224;6.552;2023-07-16T03:17:19;6.93;;;2.83;;
51724;SDS011;37801;53.224;6.552;2023-07-16T03:20:05;7.72;;;3.38;;
51724;SDS011;37801;53.224;6.552;2023-07-16T03:22:51;6.30;;;3.38;;
51724;SDS011;37801;53.224;6.552;2023-07-16T03:25:37;7.28;;;3.10;;
51724;SDS011;37801;53.224;6.552;2023-07-16T03:28:23;9.32;;;3.35;;
51724;SDS011;37801;53.224;6.552;2023-07-16T03:31:09;7.20;;;3.70;;
51724;SDS011;37801;53.224;6.552;2023-07-16T03:33:56;6.72;;;3.35;;
51724;SDS011;37801;53.224;6.552;2023-07-16T03:36:42;7.45;;;3.20;;
51724;SDS011;37801;53.224;6.552;2023-07-16T03:39:28;10.27;;;3.25;;
51724;SDS011;37801;53.224;6.552;2023-07-16T03:42:14;8.60;;;3.80;;
51724;SDS011;37801;53.224;6.552;2023-07-16T03:45:00;7.22;;;3.65;;
51724;SDS011;37801;53.224;6.552;2023-07-16T03:47:46;8.70;;;3.65;;
51724;SDS011;37801;53.224;6.552;2023-07-16T03:50:32;6.10;;;3.40;;
51724;SDS011;37801;53.224;6.552;2023-07-16T03:53:19;10.75;;;4.07;;
51724;SDS011;37801;53.224;6.552;2023-07-16T03:56:05;7.13;;;3.92;;
51724;SDS011;37801;53.224;6.552;2023-07-16T03:58:51;8.50;;;3.67;;
51724;SDS011;37801;53.224;6.552;2023-07-16T04:01:37;9.00;;;4.00;;
51724;SDS011;37801;53.224;6.552;2023-07-16T04:04:23;8.10;;;3.72;;
51724;SDS011;37801;53.224;6.552;2023-07-16T04:07:09;9.25;;;3.80;;
51724;SDS011;37801;53.224;6.552;2023-07-16T04:09:56;8.20;;;3.78;;
51724;SDS011;37801;53.224;6.552;2023-07-16T04:12:42;10.40;;;3.45;;
51724;SDS011;37801;53.224;6.552;2023-07-16T04:15:28;10.60;;;4.10;;
51724;SDS011;37801;53.224;6.552;2023-07-16T04:18:14;8.05;;;3.72;;
51724;SDS011;37801;53.224;6.552;2023-07-16T04:21:00;10.00;;;4.35;;
51724;SDS011;37801;53.224;6.552;2023-07-16T04:23:46;13.10;;;4.10;;
51724;SDS011;37801;53.224;6.552;2023-07-16T04:26:32;8.07;;;3.95;;
51724;SDS011;37801;53.224;6.552;2023-07-16T04:29:18;10.18;;;3.90;;
51724;SDS011;37801;53.224;6.552;2023-07-16T04:32:04;9.25;;;4.15;;
51724;SDS011;37801;53.224;6.552;2023-07-16T04:34:50;9.50;;;4.00;;
51724;SDS011;37801;53.224;6.552;2023-07-16T04:37:36;10.63;;;4.63;;
51724;SDS011;37801;53.224;6.552;2023-07-16T04:40:22;11.75;;;4.50;;
51724;SDS011;37801;53.224;6.552;2023-07-16T04:43:08;9.10;;;4.20;;
51724;SDS011;37801;53.224;6.552;2023-07-16T04:45:55;8.50;;;4.53;;
51724;SDS011;37801;53.224;6.552;2023-07-16T04:48:41;9.90;;;4.60;;
51724;SDS011;37801;53.224;6.552;2023-07-16T04:51:27;7.53;;;4.10;;
51724;SDS011;37801;53.224;6.552;2023-07-16T04:54:13;8.25;;;4.35;;
51724;SDS011;37801;53.224;6.552;2023-07-16T04:56:59;10.10;;;4.97;;
51724;SDS011;37801;53.224;6.552;2023-07-16T04:59:45;15.02;;;5.13;;
51724;SDS011;37801;53.224;6.552;2023-07-16T05:02:32;10.48;;;4.82;;
51724;SDS011;37801;53.224;6.552;2023-07-16T05:05:18;9.57;;;4.25;;
51724;SDS011;37801;53.224;6.552;2023-07-16T05:08:04;11.65;;;4.57;;
51724;SDS011;37801;53.224;6.552;2023-07-16T05:10:50;10.07;;;4.50;;
51724;SDS011;37801;53.224;6.552;2023-07-16T05:13:37;9.43;;;4.38;;
51724;SDS011;37801;53.224;6.552;2023-07-16T05:16:23;12.63;;;5.07;;
51724;SDS011;37801;53.224;6.552;2023-07-16T05:19:09;8.65;;;4.90;;
51724;SDS011;37801;53.224;6.552;2023-07-16T05:21:55;10.55;;;5.10;;
51724;SDS011;37801;53.224;6.552;2023-07-16T05:24:41;9.23;;;4.35;;
51724;SDS011;37801;53.224;6.552;2023-07-16T05:27:28;8.35;;;4.75;;
51724;SDS011;37801;53.224;6.552;2023-07-16T05:30:14;12.25;;;4.60;;
51724;SDS011;37801;53.224;6.552;2023-07-16T05:33:00;9.63;;;4.18;;
51724;SDS011;37801;53.224;6.552;2023-07-16T05:35:48;10.32;;;4.47;;
51724;SDS011;37801;53.224;6.552;2023-07-16T05:38:34;11.70;;;4.15;;
51724;SDS011;37801;53.224;6.552;2023-07-16T05:41:20;8.05;;;3.92;;
51724;SDS011;37801;53.224;6.552;2023-07-16T05:44:06;10.63;;;4.38;;
51724;SDS011;37801;53.224;6.552;2023-07-16T05:46:52;13.68;;;4.25;;
51724;SDS011;37801;53.224;6.552;2023-07-16T05:49:38;8.70;;;4.05;;
51724;SDS011;37801;53.224;6.552;2023-07-16T05:52:25;10.82;;;4.07;;
51724;SDS011;37801;53.224;6.552;2023-07-16T05:55:11;9.85;;;4.10;;
51724;SDS011;37801;53.224;6.552;2023-07-16T05:57:57;8.13;;;4.07;;
51724;SDS011;37801;53.224;6.552;2023-07-16T06:00:43;8.55;;;3.40;;
51724;SDS011;37801;53.224;6.552;2023-07-16T06:03:29;7.97;;;3.33;;
51724;SDS011;37801;53.224;6.552;2023-07-16T06:06:15;7.78;;;3.42;;
51724;SDS011;37801;53.224;6.552;2023-07-16T06:09:01;11.63;;;4.18;;
51724;SDS011;37801;53.224;6.552;2023-07-16T06:11:27;8.85;;;3.75;;
51724;SDS011;37801;53.224;6.552;2023-07-16T06:13:54;8.05;;;3.90;;
51724;SDS011;37801;53.224;6.552;2023-07-16T06:16:20;11.10;;;4.00;;
51724;SDS011;37801;53.224;6.552;2023-07-16T06:18:46;8.07;;;3.72;;
51724;SDS011;37801;53.224;6.552;2023-07-16T06:21:12;11.27;;;3.78;;
51724;SDS011;37801;53.224;6.552;2023-07-16T06:23:38;11.32;;;4.32;;
51724;SDS011;37801;53.224;6.552;2023-07-16T06:26:04;9.15;;;4.03;;
51724;SDS011;37801;53.224;6.552;2023-07-16T06:28:31;10.95;;;4.20;;
51724;SDS011;37801;53.224;6.552;2023-07-16T06:30:57;8.50;;;3.65;;
51724;SDS011;37801;53.224;6.552;2023-07-16T06:33:24;8.25;;;4.40;;
51724;SDS011;37801;53.224;6.552;2023-07-16T06:35:52;10.63;;;4.35;;
51724;SDS011;37801;53.224;6.552;2023-07-16T06:38:18;10.45;;;4.05;;
51724;SDS011;37801;53.224;6.552;2023-07-16T06:40:47;9.85;;;4.13;;
51724;SDS011;37801;53.224;6.552;2023-07-16T06:43:34;8.75;;;4.07;;
51724;SDS011;37801;53.224;6.552;2023-07-16T06:46:20;9.77;;;4.03;;
51724;SDS011;37801;53.224;6.552;2023-07-16T06:49:06;9.18;;;4.47;;
51724;SDS011;37801;53.224;6.552;2023-07-16T06:51:52;7.22;;;3.88;;
51724;SDS011;37801;53.224;6.552;2023-07-16T06:54:38;12.40;;;4.75;;
51724;SDS011;37801;53.224;6.552;2023-07-16T06:57:24;10.88;;;4.18;;
51724;SDS011;37801;53.224;6.552;2023-07-16T07:00:10;11.85;;;4.70;;
51724;SDS011;37801;53.224;6.552;2023-07-16T07:02:57;9.48;;;4.40;;
51724;SDS011;37801;53.224;6.552;2023-07-16T07:05:43;11.25;;;4.47;;
51724;SDS011;37801;53.224;6.552;2023-07-16T07:08:09;11.82;;;5.10;;
51724;SDS011;37801;53.224;6.552;2023-07-16T07:10:55;9.43;;;4.30;;
51724;SDS011;37801;53.224;6.552;2023-07-16T07:13:41;7.60;;;4.05;;
51724;SDS011;37801;53.224;6.552;2023-07-16T07:16:27;9.02;;;4.50;;
51724;SDS011;37801;53.224;6.552;2023-07-16T07:19:13;18.25;;;4.72;;
51724;SDS011;37801;53.224;6.552;2023-07-16T07:21:59;10.80;;;4.35;;
51724;SDS011;37801;53.224;6.552;2023-07-16T07:24:46;8.38;;;4.40;;
51724;SDS011;37801;53.224;6.552;2023-07-16T07:27:32;11.05;;;4.25;;
51724;SDS011;37801;53.224;6.552;2023-07-16T07:30:18;10.25;;;4.65;;
51724;SDS011;37801;53.224;6.552;2023-07-16T07:33:04;7.50;;;4.18;;
51724;SDS011;37801;53.224;6.552;2023-07-16T07:35:52;10.35;;;4.57;;
51724;SDS011;37801;53.224;6.552;2023-07-16T07:38:38;7.55;;;4.38;;
51724;SDS011;37801;53.224;6.552;2023-07-16T07:41:25;9.48;;;4.32;;
51724;SDS011;37801;53.224;6.552;2023-07-16T07:44:11;7.63;;;4.70;;
51724;SDS011;37801;53.224;6.552;2023-07-16T07:46:57;9.68;;;5.30;;
51724;SDS011;37801;53.224;6.552;2023-07-16T07:49:43;11.52;;;4.50;;
51724;SDS011;37801;53.224;6.552;2023-07-16T07:52:29;12.70;;;4.93;;
51724;SDS011;37801;53.224;6.552;2023-07-16T07:55:15;9.95;;;4.43;;
51724;SDS011;37801;53.224;6.552;2023-07-16T07:58:01;8.60;;;4.13;;
51724;SDS011;37801;53.224;6.552;2023-07-16T08:00:47;9.93;;;4.25;;
51724;SDS011;37801;53.224;6.552;2023-07-16T08:03:34;6.82;;;4.43;;
51724;SDS011;37801;53.224;6.552;2023-07-16T08:06:20;10.15;;;4.53;;
51724;SDS011;37801;53.224;6.552;2023-07-16T08:09:06;10.18;;;4.78;;
51724;SDS011;37801;53.224;6.552;2023-07-16T08:11:52;7.85;;;4.00;;
51724;SDS011;37801;53.224;6.552;2023-07-16T08:14:38;10.52;;;4.50;;
51724;SDS011;37801;53.224;6.552;2023-07-16T08:17:24;9.77;;;4.65;;
51724;SDS011;37801;53.224;6.552;2023-07-16T08:20:11;9.70;;;4.22;;
51724;SDS011;37801;53.224;6.552;2023-07-16T08:22:57;8.98;;;4.32;;
51724;SDS011;37801;53.224;6.552;2023-07-16T08:25:43;7.72;;;4.35;;
51724;SDS011;37801;53.224;6.552;2023-07-16T08:28:09;7.57;;;3.92;;
51724;SDS011;37801;53.224;6.552;2023-07-16T08:30:36;9.75;;;4.60;;
51724;SDS011;37801;53.224;6.552;2023-07-16T08:33:03;10.50;;;4.53;;
51724;SDS011;37801;53.224;6.552;2023-07-16T08:35:50;7.82;;;4.45;;
51724;SDS011;37801;53.224;6.552;2023-07-16T08:38:36;9.80;;;4.28;;
51724;SDS011;37801;53.224;6.552;2023-07-16T08:41:22;9.02;;;4.47;;
51724;SDS011;37801;53.224;6.552;2023-07-16T08:44:08;7.88;;;4.03;;
51724;SDS011;37801;53.224;6.552;2023-07-16T08:46:54;9.75;;;4.63;;
51724;SDS011;37801;53.224;6.552;2023-07-16T08:49:40;6.88;;;4.70;;
51724;SDS011;37801;53.224;6.552;2023-07-16T08:52:27;9.45;;;4.70;;
51724;SDS011;37801;53.224;6.552;2023-07-16T08:55:13;9.93;;;4.50;;
51724;SDS011;37801;53.224;6.552;2023-07-16T08:57:59;11.18;;;4.90;;
51724;SDS011;37801;53.224;6.552;2023-07-16T09:00:46;10.80;;;4.82;;
51724;SDS011;37801;53.224;6.552;2023-07-16T09:03:33;14.02;;;5.03;;
51724;SDS011;37801;53.224;6.552;2023-07-16T09:06:19;9.35;;;4.47;;
51724;SDS011;37801;53.224;6.552;2023-07-16T09:09:06;7.55;;;4.22;;
51724;SDS011;37801;53.224;6.552;2023-07-16T09:11:52;9.73;;;5.13;;
51724;SDS011;37801;53.224;6.552;2023-07-16T09:14:40;10.43;;;4.82;;
51724;SDS011;37801;53.224;6.552;2023-07-16T09:17:26;10.57;;;4.35;;
51724;SDS011;37801;53.224;6.552;2023-07-16T09:20:12;11.52;;;4.63;;
51724;SDS011;37801;53.224;6.552;2023-07-16T09:23:00;10.43;;;5.13;;
51724;SDS011;37801;53.224;6.552;2023-07-16T09:25:46;9.68;;;4.53;;
51724;SDS011;37801;53.224;6.552;2023-07-16T09:28:32;9.02;;;4.57;;
51724;SDS011;37801;53.224;6.552;2023-07-16T09:31:19;8.93;;;4.28;;
51724;SDS011;37801;53.224;6.552;2023-07-16T09:33:46;8.13;;;3.92;;
51724;SDS011;37801;53.224;6.552;2023-07-16T09:36:12;10.18;;;4.20;;
51724;SDS011;37801;53.224;6.552;2023-07-16T09:38:58;8.63;;;4.07;;
51724;SDS011;37801;53.224;6.552;2023-07-16T09:41:48;8.63;;;3.92;;
51724;SDS011;37801;53.224;6.552;2023-07-16T09:44:34;7.05;;;4.05;;
51724;SDS011;37801;53.224;6.552;2023-07-16T09:47:20;8.45;;;4.30;;
51724;SDS011;37801;53.224;6.552;2023-07-16T09:50:06;7.88;;;4.40;;
51724;SDS011;37801;53.224;6.552;2023-07-16T09:52:52;9.07;;;4.38;;
51724;SDS011;37801;53.224;6.552;2023-07-16T09:55:39;7.10;;;4.30;;
51724;SDS011;37801;53.224;6.552;2023-07-16T09:58:25;8.20;;;4.30;;
51724;SDS011;37801;53.224;6.552;2023-07-16T10:01:12;8.75;;;4.25;;
51724;SDS011;37801;53.224;6.552;2023-07-16T10:03:59;13.18;;;4.97;;
51724;SDS011;37801;53.224;6.552;2023-07-16T10:06:55;8.88;;;4.45;;
51724;SDS011;37801;53.224;6.552;2023-07-16T10:09:37;10.30;;;4.97;;
51724;SDS011;37801;53.224;6.552;2023-07-16T10:12:16;9.18;;;4.20;;
51724;SDS011;37801;53.224;6.552;2023-07-16T10:14:50;7.90;;;3.80;;
51724;SDS011;37801;53.224;6.552;2023-07-16T10:17:37;8.88;;;4.00;;
51724;SDS011;37801;53.224;6.552;2023-07-16T10:20:33;8.00;;;4.07;;
51724;SDS011;37801;53.224;6.552;2023-07-16T10:23:19;10.40;;;3.53;;
51724;SDS011;37801;53.224;6.552;2023-07-16T10:26:01;8.52;;;4.18;;
51724;SDS011;37801;53.224;6.552;2023-07-16T10:28:47;9.75;;;4.43;;
51724;SDS011;37801;53.224;6.552;2023-07-16T10:31:33;7.30;;;3.83;;
51724;SDS011;37801;53.224;6.552;2023-07-16T10:34:01;8.90;;;3.78;;
51724;SDS011;37801;53.224;6.552;2023-07-16T10:36:29;13.25;;;4.50;;
51724;SDS011;37801;53.224;6.552;2023-07-16T10:39:15;10.13;;;4.20;;
51724;SDS011;37801;53.224;6.552;2023-07-16T10:42:02;6.18;;;3.70;;
51724;SDS011;37801;53.224;6.552;2023-07-16T10:44:48;8.15;;;4.30;;
51724;SDS011;37801;53.224;6.552;2023-07-16T10:47:35;8.68;;;3.75;;
51724;SDS011;37801;53.224;6.552;2023-07-16T10:50:22;10.98;;;4.50;;
51724;SDS011;37801;53.224;6.552;2023-07-16T10:53:08;7.57;;;4.00;;
51724;SDS011;37801;53.224;6.552;2023-07-16T10:55:54;10.43;;;5.25;;
51724;SDS011;37801;53.224;6.552;2023-07-16T10:58:40;8.57;;;4.30;;
51724;SDS011;37801;53.224;6.552;2023-07-16T11:01:28;6.97;;;4.13;;
51724;SDS011;37801;53.224;6.552;2023-07-16T11:04:14;8.98;;;4.15;;
51724;SDS011;37801;53.224;6.552;2023-07-16T11:07:03;9.65;;;4.43;;
51724;SDS011;37801;53.224;6.552;2023-07-16T11:09:50;10.55;;;3.88;;
51724;SDS011;37801;53.224;6.552;2023-07-16T11:12:36;9.00;;;3.92;;
51724;SDS011;37801;53.224;6.552;2023-07-16T11:15:34;8.98;;;3.80;;
51724;SDS011;37801;53.224;6.552;2023-07-16T11:18:24;7.30;;;4.03;;
51724;SDS011;37801;53.224;6.552;2023-07-16T11:21:10;7.97;;;3.90;;
51724;SDS011;37801;53.224;6.552;2023-07-16T11:23:56;9.77;;;4.22;;
51724;SDS011;37801;53.224;6.552;2023-07-16T11:26:53;9.18;;;3.42;;
51724;SDS011;37801;53.224;6.552;2023-07-16T11:29:50;9.68;;;3.53;;
51724;SDS011;37801;53.224;6.552;2023-07-16T11:32:43;10.98;;;3.72;;
51724;SDS011;37801;53.224;6.552;2023-07-16T11:35:31;8.35;;;3.78;;
51724;SDS011;37801;53.224;6.552;2023-07-16T11:38:17;9.98;;;3.72;;
51724;SDS011;37801;53.224;6.552;2023-07-16T11:41:04;11.35;;;3.60;;
51724;SDS011;37801;53.224;6.552;2023-07-16T11:43:50;6.72;;;3.38;;
51724;SDS011;37801;53.224;6.552;2023-07-16T11:46:36;7.65;;;3.45;;
51724;SDS011;37801;53.224;6.552;2023-07-16T11:49:22;7.43;;;3.45;;
51724;SDS011;37801;53.224;6.552;2023-07-16T11:52:08;5.50;;;3.20;;
51724;SDS011;37801;53.224;6.552;2023-07-16T11:54:57;8.65;;;3.50;;
51724;SDS011;37801;53.224;6.552;2023-07-16T11:57:46;6.78;;;3.45;;
51724;SDS011;37801;53.224;6.552;2023-07-16T12:00:32;9.02;;;3.85;;
51724;SDS011;37801;53.224;6.552;2023-07-16T12:03:18;7.88;;;3.55;;
51724;SDS011;37801;53.224;6.552;2023-07-16T12:06:04;9.45;;;3.95;;
51724;SDS011;37801;53.224;6.552;2023-07-16T12:08:51;8.80;;;4.18;;
51724;SDS011;37801;53.224;6.552;2023-07-16T12:11:37;9.88;;;4.40;;
51724;SDS011;37801;53.224;6.552;2023-07-16T12:14:23;8.23;;;4.13;;
51724;SDS011;37801;53.224;6.552;2023-07-16T12:17:09;7.40;;;4.00;;
51724;SDS011;37801;53.224;6.552;2023-07-16T12:19:55;9.90;;;4.25;;
51724;SDS011;37801;53.224;6.552;2023-07-16T12:22:42;8.60;;;4.13;;
51724;SDS011;37801;53.224;6.552;2023-07-16T12:25:28;9.85;;;4.22;;
51724;SDS011;37801;53.224;6.552;2023-07-16T12:28:14;10.68;;;4.72;;
51724;SDS011;37801;53.224;6.552;2023-07-16T12:31:00;10.40;;;4.72;;
51724;SDS011;37801;53.224;6.552;2023-07-16T12:33:47;11.63;;;4.85;;
51724;SDS011;37801;53.224;6.552;2023-07-16T12:36:33;9.45;;;4.82;;
51724;SDS011;37801;53.224;6.552;2023-07-16T12:39:19;10.63;;;4.90;;
51724;SDS011;37801;53.224;6.552;2023-07-16T12:42:05;10.77;;;5.03;;
51724;SDS011;37801;53.224;6.552;2023-07-16T12:44:51;8.05;;;4.50;;
51724;SDS011;37801;53.224;6.552;2023-07-16T12:47:37;11.40;;;4.50;;
51724;SDS011;37801;53.224;6.552;2023-07-16T12:50:23;7.20;;;4.25;;
51724;SDS011;37801;53.224;6.552;2023-07-16T12:53:10;10.38;;;4.40;;
51724;SDS011;37801;53.224;6.552;2023-07-16T12:55:56;10.35;;;4.82;;
51724;SDS011;37801;53.224;6.552;2023-07-16T12:58:42;7.30;;;4.05;;
51724;SDS011;37801;53.224;6.552;2023-07-16T13:01:28;8.32;;;4.35;;
51724;SDS011;37801;53.224;6.552;2023-07-16T13:04:14;10.18;;;4.47;;
51724;SDS011;37801;53.224;6.552;2023-07-16T13:07:00;8.50;;;3.85;;
51724;SDS011;37801;53.224;6.552;2023-07-16T13:09:46;8.10;;;4.40;;
51724;SDS011;37801;53.224;6.552;2023-07-16T13:12:32;9.02;;;4.30;;
51724;SDS011;37801;53.224;6.552;2023-07-16T13:15:19;6.00;;;3.40;;
51724;SDS011;37801;53.224;6.552;2023-07-16T13:18:05;6.10;;;3.20;;
51724;SDS011;37801;53.224;6.552;2023-07-16T13:20:51;6.35;;;3.47;;
51724;SDS011;37801;53.224;6.552;2023-07-16T13:23:37;7.50;;;3.28;;
51724;SDS011;37801;53.224;6.552;2023-07-16T13:26:23;7.22;;;2.85;;
51724;SDS011;37801;53.224;6.552;2023-07-16T13:29:09;7.95;;;3.30;;
51724;SDS011;37801;53.224;6.552;2023-07-16T13:31:55;8.32;;;3.47;;
51724;SDS011;37801;53.224;6.552;2023-07-16T13:34:42;8.85;;;3.47;;
51724;SDS011;37801;53.224;6.552;2023-07-16T13:37:28;7.57;;;3.53;;
51724;SDS011;37801;53.224;6.552;2023-07-16T13:40:14;7.00;;;3.15;;
51724;SDS011;37801;53.224;6.552;2023-07-16T13:43:00;10.07;;;3.40;;
51724;SDS011;37801;53.224;6.552;2023-07-16T13:45:46;9.82;;;3.03;;
51724;SDS011;37801;53.224;6.552;2023-07-16T13:48:32;11.18;;;2.85;;
51724;SDS011;37801;53.224;6.552;2023-07-16T13:51:18;4.65;;;1.90;;
51724;SDS011;37801;53.224;6.552;2023-07-16T13:54:05;5.10;;;2.22;;
51724;SDS011;37801;53.224;6.552;2023-07-16T13:56:31;10.77;;;2.22;;
51724;SDS011;37801;53.224;6.552;2023-07-16T13:58:57;10.77;;;2.50;;
51724;SDS011;37801;53.224;6.552;2023-07-16T14:01:24;7.93;;;2.28;;
51724;SDS011;37801;53.224;6.552;2023-07-16T14:03:50;12.05;;;2.53;;
51724;SDS011;37801;53.224;6.552;2023-07-16T14:06:16;8.52;;;2.35;;
51724;SDS011;37801;53.224;6.552;2023-07-16T14:08:42;11.43;;;2.40;;
51724;SDS011;37801;53.224;6.552;2023-07-16T14:11:08;8.95;;;1.92;;
51724;SDS011;37801;53.224;6.552;2023-07-16T14:13:54;8.18;;;2.40;;
51724;SDS011;37801;53.224;6.552;2023-07-16T14:16:41;9.95;;;2.58;;
51724;SDS011;37801;53.224;6.552;2023-07-16T14:19:27;8.13;;;2.17;;
51724;SDS011;37801;53.224;6.552;2023-07-16T14:22:13;7.80;;;2.05;;
51724;SDS011;37801;53.224;6.552;2023-07-16T14:24:59;8.65;;;2.00;;
51724;SDS011;37801;53.224;6.552;2023-07-16T14:27:45;11.90;;;3.00;;
51724;SDS011;37801;53.224;6.552;2023-07-16T14:30:31;5.20;;;1.58;;
51724;SDS011;37801;53.224;6.552;2023-07-16T14:33:17;7.22;;;2.17;;
51724;SDS011;37801;53.224;6.552;2023-07-16T14:36:03;11.90;;;2.17;;
51724;SDS011;37801;53.224;6.552;2023-07-16T14:38:49;8.00;;;2.03;;
51724;SDS011;37801;53.224;6.552;2023-07-16T14:41:36;6.82;;;1.83;;
51724;SDS011;37801;53.224;6.552;2023-07-16T14:44:22;6.57;;;1.67;;
51724;SDS011;37801;53.224;6.552;2023-07-16T14:47:08;7.97;;;1.70;;
51724;SDS011;37801;53.224;6.552;2023-07-16T14:49:54;4.55;;;1.40;;
51724;SDS011;37801;53.224;6.552;2023-07-16T14:52:40;8.32;;;1.77;;
51724;SDS011;37801;53.224;6.552;2023-07-16T14:55:26;8.00;;;1.83;;
51724;SDS011;37801;53.224;6.552;2023-07-16T14:58:12;9.32;;;1.85;;
51724;SDS011;37801;53.224;6.552;2023-07-16T15:01:01;9.95;;;2.00;;
51724;SDS011;37801;53.224;6.552;2023-07-16T15:03:53;8.15;;;1.80;;
51724;SDS011;37801;53.224;6.552;2023-07-16T15:06:40;9.95;;;1.95;;
51724;SDS011;37801;53.224;6.552;2023-07-16T15:09:26;10.43;;;1.75;;
51724;SDS011;37801;53.224;6.552;2023-07-16T15:12:12;7.70;;;2.08;;
51724;SDS011;37801;53.224;6.552;2023-07-16T15:14:58;9.73;;;1.88;;
51724;SDS011;37801;53.224;6.552;2023-07-16T15:17:44;8.48;;;1.80;;
51724;SDS011;37801;53.224;6.552;2023-07-16T15:20:11;8.18;;;1.80;;
51724;SDS011;37801;53.224;6.552;2023-07-16T15:22:57;10.27;;;2.08;;
51724;SDS011;37801;53.224;6.552;2023-07-16T15:25:43;8.93;;;1.98;;
51724;SDS011;37801;53.224;6.552;2023-07-16T15:28:29;5.55;;;1.50;;
51724;SDS011;37801;53.224;6.552;2023-07-16T15:31:15;6.72;;;1.80;;
51724;SDS011;37801;53.224;6.552;2023-07-16T15:34:01;7.10;;;1.98;;
51724;SDS011;37801;53.224;6.552;2023-07-16T15:36:28;8.45;;;2.17;;
51724;SDS011;37801;53.224;6.552;2023-07-16T15:39:14;12.10;;;2.03;;
51724;SDS011;37801;53.224;6.552;2023-07-16T15:42:00;9.10;;;2.28;;
51724;SDS011;37801;53.224;6.552;2023-07-16T15:44:46;8.25;;;1.80;;
51724;SDS011;37801;53.224;6.552;2023-07-16T15:47:33;8.45;;;1.83;;
51724;SDS011;37801;53.224;6.552;2023-07-16T15:50:19;9.02;;;1.75;;
51724;SDS011;37801;53.224;6.552;2023-07-16T15:53:01;6.75;;;1.88;;
51724;SDS011;37801;53.224;6.552;2023-07-16T15:55:47;9.63;;;2.45;;
51724;SDS011;37801;53.224;6.552;2023-07-16T15:58:33;7.15;;;1.55;;
51724;SDS011;37801;53.224;6.552;2023-07-16T16:01:01;8.57;;;2.20;;
51724;SDS011;37801;53.224;6.552;2023-07-16T16:03:47;9.43;;;1.80;;
51724;SDS011;37801;53.224;6.552;2023-07-16T16:06:33;9.95;;;2.08;;
51724;SDS011;37801;53.224;6.552;2023-07-16T16:09:19;8.90;;;2.20;;
51724;SDS011;37801;53.224;6.552;2023-07-16T16:12:06;6.32;;;1.77;;
51724;SDS011;37801;53.224;6.552;2023-07-16T16:14:52;5.57;;;1.80;;
51724;SDS011;37801;53.224;6.552;2023-07-16T16:17:18;7.32;;;1.63;;
51724;SDS011;37801;53.224;6.552;2023-07-16T16:20:04;6.82;;;2.13;;
51724;SDS011;37801;53.224;6.552;2023-07-16T16:22:50;8.18;;;2.08;;
51724;SDS011;37801;53.224;6.552;2023-07-16T16:25:37;10.73;;;1.42;;
51724;SDS011;37801;53.224;6.552;2023-07-16T16:28:23;8.13;;;1.90;;
51724;SDS011;37801;53.224;6.552;2023-07-16T16:31:09;5.90;;;1.40;;